KCFD

Coulter Field Airport

Bryan, Texas, USA
METAR KCFD 230035Z AUTO 00000KT 10SM SCT070 SCT075 SCT120 15/10 A3019 RMK AO2 T01450095
Observed Flight Rules
Oct-23 @ 00:35 UTC (26 minutes ago) Visual Flight Rules
Visibility Clouds
10 miles
  • Scattered at 7,000' AGL
  • Scattered at 7,500' AGL
  • Scattered at 12,000' AGL
Temperatures Readings
Current 15°C / 59°F
Dewpoint 10°C / 50°F
Humidity 72%
Altimeter 30.19" Hg
Pressure 1022 hPa
Elevation 112
METAR KCFD 230035Z AUTO 00000KT 10SM SCT070 SCT075 SCT120 15/10 A3019 RMK AO2 T01450095
Observed Flight Rules
Oct-23 @ 00:35 UTC
(26 minutes ago)
VFR
Clouds
  • Scattered at 7,000' AGL
  • Scattered at 7,500' AGL
  • Scattered at 12,000' AGL
Temperature Dewpoint
15°C / 59°F 10°C / 50°F
Humidity Altimeter Pressure
72% 30.19" Hg 1022 hPa